Time;durP1;ratioP1;P1;durP2;ratioP2;P2;SDS_P1;SDS_P2;PMS_P1;PMS_P2;Temp;Humidity;BMP_temperature;BMP_pressure;BME280_temperature;BME280_humidity;BME280_pressure;Samples;Min_cycle;Max_cycle;Signal;HPM_P1;HPM_P2
2021/09/06 00:00:35;;;;;;;28.35;17.87;;;;;;;;;;4287388;33;20583;-85
2021/09/06 00:03:17;;;;;;;24.55;16.37;;;;;;;;;;4287357;33;20208;-85
2021/09/06 00:06:05;;;;;;;26.65;15.98;;;;;;;;;;4298935;33;20653;-85
2021/09/06 00:09:11;;;;;;;23.83;15.65;;;;;;;;;;4348114;33;20596;-84
2021/09/06 00:12:08;;;;;;;24.35;15.45;;;;;;;;;;4347222;33;20162;-84
2021/09/06 00:14:37;;;;;;;25.83;15.45;;;;;;;;;;4335856;33;20174;-84
2021/09/06 00:17:35;;;;;;;24.10;15.98;;;;;;;;;;4345381;33;20194;-84
2021/09/06 00:20:03;;;;;;;27.40;17.17;;;;;;;;;;4358521;33;20193;-84
2021/09/06 00:22:34;;;;;;;25.17;16.15;;;;;;;;;;4343569;33;20576;-84
2021/09/06 00:25:08;;;;;;;26.48;17.00;;;;;;;;;;4345662;33;20509;-86
2021/09/06 00:27:36;;;;;;;28.27;16.52;;;;;;;;;;4337779;33;20270;-85
2021/09/06 00:30:10;;;;;;;28.87;17.20;;;;;;;;;;4346758;33;20159;-85
2021/09/06 00:32:48;;;;;;;26.23;17.23;;;;;;;;;;4347235;33;20565;-85
2021/09/06 00:35:46;;;;;;;;;;;;;;;;;;;;;
2021/09/06 00:38:20;;;;;;;25.45;16.12;;;;;;;;;;4343256;33;20159;-85
2021/09/06 00:41:11;;;;;;;27.02;16.50;;;;;;;;;;4347480;33;20470;-85
2021/09/06 00:43:50;;;;;;;;;;;;;;;;;;;;;
2021/09/06 00:46:23;;;;;;;25.30;16.50;;;;;;;;;;4347179;33;20131;-86
2021/09/06 00:49:18;;;;;;;;;;;;;;;;;;;;;
2021/09/06 00:51:47;;;;;;;26.27;16.08;;;;;;;;;;4334097;33;20194;-85
2021/09/06 00:54:31;;;;;;;26.83;16.27;;;;;;;;;;4346706;33;20136;-85
2021/09/06 01:00:24;;;;;;;27.75;16.50;;;;;;;;;;4301155;33;20227;-85
2021/09/06 01:06:43;;;;;;;27.27;16.20;;;;;;;;;;4272013;33;20512;-85
2021/09/06 01:09:37;;;;;;;;;;;;;;;;;;;;;
2021/09/06 01:25:44;;;;;;;25.62;16.05;;;;;;;;;;4286808;33;20190;-86
2021/09/06 01:28:11;;;;;;;25.58;15.77;;;;;;;;;;4269382;33;20199;-85
2021/09/06 01:33:33;;;;;;;24.15;16.08;;;;;;;;;;4247014;33;20150;-85
2021/09/06 01:36:16;;;;;;;29.20;18.55;;;;;;;;;;4317871;33;20155;-85
2021/09/06 01:38:58;;;;;;;24.45;15.90;;;;;;;;;;4332086;33;20186;-86
2021/09/06 01:41:42;;;;;;;26.23;16.70;;;;;;;;;;4346342;33;20162;-86
2021/09/06 01:47:58;;;;;;;;;;;;;;;;;;;;;
2021/09/06 01:53:59;;;;;;;27.05;16.85;;;;;;;;;;4257263;33;20258;-86
2021/09/06 01:56:36;;;;;;;30.95;17.85;;;;;;;;;;4255141;33;20697;-85
2021/09/06 01:59:01;;;;;;;27.15;17.55;;;;;;;;;;4319189;33;20612;-86
2021/09/06 02:01:41;;;;;;;27.85;17.65;;;;;;;;;;4317690;33;20269;-86
2021/09/06 02:04:09;;;;;;;25.60;17.15;;;;;;;;;;4331386;33;20538;-87
2021/09/06 02:06:42;;;;;;;30.50;18.00;;;;;;;;;;4331490;33;20162;-86
2021/09/06 02:09:17;;;;;;;31.12;17.58;;;;;;;;;;4331205;33;20147;-86
2021/09/06 02:11:48;;;;;;;30.08;18.37;;;;;;;;;;4317766;33;20190;-87
2021/09/06 02:14:18;;;;;;;26.80;16.92;;;;;;;;;;4330879;33;20223;-86
2021/09/06 02:16:44;;;;;;;27.98;17.60;;;;;;;;;;4317884;33;20160;-86
2021/09/06 02:19:12;;;;;;;23.83;16.08;;;;;;;;;;4317879;33;20272;-86
2021/09/06 02:21:37;;;;;;;28.83;18.02;;;;;;;;;;4331428;33;20537;-87
2021/09/06 02:24:03;;;;;;;32.55;19.20;;;;;;;;;;4330683;33;20136;-87
2021/09/06 02:26:32;;;;;;;25.83;17.00;;;;;;;;;;4330693;33;20136;-87
2021/09/06 02:28:57;;;;;;;29.17;17.52;;;;;;;;;;4330867;33;20151;-87
2021/09/06 02:31:23;;;;;;;27.30;16.90;;;;;;;;;;4331219;33;20163;-87
2021/09/06 02:34:06;;;;;;;27.92;16.73;;;;;;;;;;4331166;33;20195;-87
2021/09/06 02:36:37;;;;;;;28.15;17.55;;;;;;;;;;4317422;33;20450;-86
2021/09/06 02:39:03;;;;;;;27.87;17.50;;;;;;;;;;4331144;33;20609;-85
2021/09/06 02:41:32;;;;;;;29.30;16.90;;;;;;;;;;4330993;33;20175;-84
2021/09/06 02:43:59;;;;;;;33.78;19.77;;;;;;;;;;4330471;33;20136;-85
2021/09/06 02:46:25;;;;;;;26.83;16.95;;;;;;;;;;4330486;33;20163;-85
2021/09/06 02:48:50;;;;;;;27.00;17.45;;;;;;;;;;4344666;33;20140;-85
2021/09/06 02:51:18;;;;;;;31.10;17.90;;;;;;;;;;4345119;33;20257;-85
2021/09/06 02:53:52;;;;;;;31.75;18.45;;;;;;;;;;4331977;33;20163;-85
2021/09/06 02:56:17;;;;;;;30.77;17.98;;;;;;;;;;4332450;33;20287;-85
2021/09/06 02:58:43;;;;;;;27.85;17.08;;;;;;;;;;4345119;33;20144;-85
2021/09/06 03:01:08;;;;;;;26.42;16.67;;;;;;;;;;4331894;33;20247;-85
2021/09/06 03:03:36;;;;;;;31.02;17.98;;;;;;;;;;4345782;33;20170;-85
2021/09/06 03:06:01;;;;;;;26.67;17.08;;;;;;;;;;4331716;33;20163;-85
2021/09/06 03:08:29;;;;;;;31.87;19.20;;;;;;;;;;4345361;33;20136;-85
2021/09/06 03:10:57;;;;;;;35.38;19.65;;;;;;;;;;4345274;33;20558;-85
2021/09/06 03:13:28;;;;;;;26.12;17.30;;;;;;;;;;4331713;33;20186;-85
2021/09/06 03:15:53;;;;;;;29.55;18.67;;;;;;;;;;4346384;33;20131;-85
2021/09/06 03:18:19;;;;;;;27.25;16.67;;;;;;;;;;4345038;33;20268;-85
2021/09/06 03:20:47;;;;;;;29.77;19.05;;;;;;;;;;4345128;33;20141;-85
2021/09/06 03:23:15;;;;;;;29.85;18.12;;;;;;;;;;4331628;33;20661;-85
2021/09/06 03:25:45;;;;;;;31.50;18.83;;;;;;;;;;4331749;33;20603;-85
2021/09/06 03:28:13;;;;;;;30.15;18.30;;;;;;;;;;4348694;33;20158;-85
2021/09/06 03:30:39;;;;;;;30.20;17.17;;;;;;;;;;4347763;33;20143;-86
2021/09/06 03:33:04;;;;;;;31.73;18.25;;;;;;;;;;4348155;33;20132;-85
2021/09/06 03:35:29;;;;;;;26.48;17.52;;;;;;;;;;4348101;33;20162;-85
2021/09/06 03:37:55;;;;;;;29.10;17.83;;;;;;;;;;4348359;33;20163;-85
2021/09/06 03:40:23;;;;;;;29.85;18.42;;;;;;;;;;4334731;33;20159;-86
2021/09/06 03:42:51;;;;;;;31.50;18.67;;;;;;;;;;4347544;33;20474;-86
2021/09/06 03:45:17;;;;;;;26.85;17.92;;;;;;;;;;4334496;33;20191;-86
2021/09/06 03:47:44;;;;;;;32.92;19.73;;;;;;;;;;4347416;33;20237;-86
2021/09/06 03:50:15;;;;;;;28.52;19.05;;;;;;;;;;4347396;33;20148;-86
2021/09/06 03:52:43;;;;;;;35.72;20.98;;;;;;;;;;4348105;33;20144;-85
2021/09/06 03:55:18;;;;;;;37.15;20.62;;;;;;;;;;4334490;33;20185;-85
2021/09/06 03:57:44;;;;;;;28.65;19.40;;;;;;;;;;4347952;33;20151;-85
2021/09/06 04:00:09;;;;;;;38.08;21.15;;;;;;;;;;4334054;33;20623;-86
2021/09/06 04:02:41;;;;;;;40.00;21.05;;;;;;;;;;4334021;33;20458;-86
2021/09/06 04:05:06;;;;;;;39.53;22.92;;;;;;;;;;4334952;33;20233;-85
2021/09/06 04:07:35;;;;;;;32.85;19.40;;;;;;;;;;4347332;33;20469;-85
2021/09/06 04:10:03;;;;;;;40.60;21.95;;;;;;;;;;4347554;33;20178;-85
2021/09/06 04:12:34;;;;;;;38.50;22.10;;;;;;;;;;4347422;33;20162;-85
2021/09/06 04:15:08;;;;;;;42.83;23.10;;;;;;;;;;4348013;33;20135;-85
2021/09/06 04:17:33;;;;;;;34.72;20.70;;;;;;;;;;4332308;33;20655;-86
2021/09/06 04:20:04;;;;;;;33.55;21.70;;;;;;;;;;4347971;33;20144;-86
2021/09/06 04:22:35;;;;;;;33.55;20.10;;;;;;;;;;4347109;33;20128;-85
2021/09/06 04:25:06;;;;;;;34.17;21.30;;;;;;;;;;4347351;33;20591;-85
2021/09/06 04:27:34;;;;;;;41.08;23.75;;;;;;;;;;4334468;33;20155;-85
2021/09/06 04:30:05;;;;;;;44.58;24.50;;;;;;;;;;4347005;33;20163;-85
2021/09/06 04:32:30;;;;;;;33.05;20.12;;;;;;;;;;4347195;33;20135;-85
2021/09/06 04:35:09;;;;;;;38.30;21.15;;;;;;;;;;4333136;33;20217;-85
2021/09/06 04:37:45;;;;;;;43.90;23.25;;;;;;;;;;4333642;33;20435;-85
2021/09/06 04:40:14;;;;;;;33.90;21.17;;;;;;;;;;4331996;33;20182;-86
2021/09/06 04:42:39;;;;;;;39.58;23.08;;;;;;;;;;4346729;33;20191;-85
2021/09/06 04:45:13;;;;;;;36.25;20.10;;;;;;;;;;4346790;33;20147;-85
2021/09/06 04:47:39;;;;;;;40.08;22.58;;;;;;;;;;4347151;33;20150;-84
2021/09/06 04:50:09;;;;;;;40.05;23.12;;;;;;;;;;4333354;33;20663;-84
2021/09/06 04:52:34;;;;;;;37.88;22.52;;;;;;;;;;4333684;33;20485;-85
2021/09/06 04:55:03;;;;;;;34.92;21.27;;;;;;;;;;4347258;33;20135;-87
2021/09/06 04:57:45;;;;;;;37.35;22.10;;;;;;;;;;4333687;33;20159;-85
2021/09/06 05:00:12;;;;;;;37.15;21.20;;;;;;;;;;4333291;33;20163;-86
2021/09/06 05:02:38;;;;;;;35.60;20.92;;;;;;;;;;4346629;33;20162;-86
2021/09/06 05:05:09;;;;;;;42.58;24.00;;;;;;;;;;4339096;33;20159;-86
2021/09/06 05:07:34;;;;;;;40.63;23.77;;;;;;;;;;4341545;33;20454;-86
2021/09/06 05:10:02;;;;;;;47.33;26.12;;;;;;;;;;4341429;33;20217;-86
2021/09/06 05:12:31;;;;;;;45.38;25.52;;;;;;;;;;4335577;33;20182;-86
2021/09/06 05:14:59;;;;;;;49.58;26.95;;;;;;;;;;4346595;33;20170;-86
2021/09/06 05:17:24;;;;;;;46.42;25.52;;;;;;;;;;4346111;33;20161;-85
2021/09/06 05:19:50;;;;;;;42.58;23.77;;;;;;;;;;4332921;33;20160;-84
2021/09/06 05:22:17;;;;;;;41.35;23.45;;;;;;;;;;4332901;33;20159;-84
2021/09/06 05:24:46;;;;;;;43.33;25.10;;;;;;;;;;4332671;33;20189;-85
2021/09/06 05:27:14;;;;;;;39.92;22.55;;;;;;;;;;4333063;33;20194;-87
2021/09/06 05:29:40;;;;;;;46.20;24.58;;;;;;;;;;4332566;33;20168;-86
2021/09/06 05:32:05;;;;;;;48.30;27.95;;;;;;;;;;4346634;33;20159;-84
2021/09/06 05:34:30;;;;;;;44.20;25.83;;;;;;;;;;4345760;33;20510;-83
2021/09/06 05:36:56;;;;;;;42.95;24.12;;;;;;;;;;4332675;33;20202;-83
2021/09/06 05:39:21;;;;;;;44.83;27.02;;;;;;;;;;4332354;33;20485;-84
2021/09/06 05:41:46;;;;;;;43.60;23.85;;;;;;;;;;4346639;33;20238;-84
2021/09/06 05:44:11;;;;;;;41.70;23.08;;;;;;;;;;4345984;33;20135;-83
2021/09/06 05:46:36;;;;;;;42.28;24.50;;;;;;;;;;4346326;33;20182;-84
2021/09/06 05:49:03;;;;;;;43.65;24.55;;;;;;;;;;4345528;33;20415;-83
2021/09/06 05:51:28;;;;;;;43.22;24.73;;;;;;;;;;4346187;33;20148;-84
2021/09/06 05:53:53;;;;;;;51.05;25.00;;;;;;;;;;4346156;33;20135;-84
2021/09/06 05:56:20;;;;;;;39.90;23.77;;;;;;;;;;4345922;33;20136;-83
2021/09/06 05:58:46;;;;;;;39.42;23.45;;;;;;;;;;4345932;33;20140;-84
2021/09/06 06:01:11;;;;;;;38.90;23.52;;;;;;;;;;4346438;33;20163;-83
2021/09/06 06:03:36;;;;;;;42.50;24.45;;;;;;;;;;4348669;33;20151;-84
2021/09/06 06:06:01;;;;;;;42.00;24.55;;;;;;;;;;4349433;33;20159;-86
2021/09/06 06:08:27;;;;;;;40.88;22.95;;;;;;;;;;4335124;33;20218;-85
2021/09/06 06:10:52;;;;;;;43.35;24.92;;;;;;;;;;4348232;33;20151;-84
2021/09/06 06:13:17;;;;;;;42.47;23.85;;;;;;;;;;4347093;33;20190;-83
2021/09/06 06:15:42;;;;;;;41.83;24.75;;;;;;;;;;4332441;33;20164;-85
2021/09/06 06:18:08;;;;;;;45.65;25.85;;;;;;;;;;4320083;33;20193;-84
2021/09/06 06:20:33;;;;;;;45.08;23.75;;;;;;;;;;4345412;33;20136;-82
2021/09/06 06:22:58;;;;;;;39.05;23.52;;;;;;;;;;4345284;33;20532;-83
2021/09/06 06:25:24;;;;;;;38.50;23.90;;;;;;;;;;4345773;33;20158;-84
2021/09/06 06:27:52;;;;;;;39.78;22.48;;;;;;;;;;4333084;33;20186;-84
2021/09/06 06:30:18;;;;;;;37.65;22.92;;;;;;;;;;4345864;33;20230;-84
2021/09/06 06:32:43;;;;;;;40.05;22.52;;;;;;;;;;4346420;33;20158;-83
2021/09/06 06:35:09;;;;;;;36.40;21.85;;;;;;;;;;4345750;33;20261;-83
2021/09/06 06:37:34;;;;;;;39.25;23.10;;;;;;;;;;4345339;33;20182;-83
2021/09/06 06:39:59;;;;;;;40.92;22.37;;;;;;;;;;4345722;33;20136;-84
2021/09/06 06:42:24;;;;;;;39.50;23.42;;;;;;;;;;4345190;33;20135;-84
2021/09/06 06:44:50;;;;;;;37.28;23.05;;;;;;;;;;4345039;33;20485;-84
2021/09/06 06:47:15;;;;;;;38.80;23.40;;;;;;;;;;4344950;33;20524;-83
2021/09/06 06:49:40;;;;;;;43.05;22.35;;;;;;;;;;4345780;33;20167;-83
2021/09/06 06:52:06;;;;;;;39.63;23.50;;;;;;;;;;4332111;33;20190;-83
2021/09/06 06:54:31;;;;;;;38.50;23.27;;;;;;;;;;4331474;33;20492;-84
2021/09/06 06:56:56;;;;;;;39.53;23.77;;;;;;;;;;4331687;33;20218;-84
2021/09/06 06:59:24;;;;;;;40.55;23.83;;;;;;;;;;4331562;33;20160;-79
2021/09/06 07:01:49;;;;;;;40.78;22.80;;;;;;;;;;4334810;33;20604;-83
2021/09/06 07:04:14;;;;;;;38.90;24.17;;;;;;;;;;4348338;33;20128;-83
2021/09/06 07:06:40;;;;;;;41.00;23.67;;;;;;;;;;4334428;33;20189;-82
2021/09/06 07:09:05;;;;;;;41.60;23.38;;;;;;;;;;4334810;33;20574;-83
2021/09/06 07:11:30;;;;;;;38.17;23.15;;;;;;;;;;4347975;33;20143;-80
2021/09/06 07:13:55;;;;;;;35.78;22.08;;;;;;;;;;4334324;33;20194;-83
2021/09/06 07:16:21;;;;;;;40.50;23.85;;;;;;;;;;4347943;33;20131;-84
2021/09/06 07:18:46;;;;;;;37.17;22.00;;;;;;;;;;4347463;33;20495;-83
2021/09/06 07:24:08;;;;;;;38.17;24.35;;;;;;;;;;4342000;33;20235;-83
2021/09/06 07:26:33;;;;;;;41.25;24.12;;;;;;;;;;4333849;33;20156;-77
2021/09/06 07:28:59;;;;;;;39.28;23.75;;;;;;;;;;4347799;33;20170;-82
2021/09/06 07:31:25;;;;;;;38.80;23.62;;;;;;;;;;4349742;33;20143;-81
2021/09/06 07:33:53;;;;;;;38.40;22.35;;;;;;;;;;4349942;33;20135;-84
2021/09/06 07:36:18;;;;;;;38.50;21.25;;;;;;;;;;4349933;33;20144;-82
2021/09/06 07:38:43;;;;;;;38.50;22.37;;;;;;;;;;4336463;33;20218;-83
2021/09/06 07:41:09;;;;;;;36.15;21.60;;;;;;;;;;4351411;33;20131;-84
2021/09/06 07:43:34;;;;;;;38.13;24.27;;;;;;;;;;4347508;33;20182;-82
2021/09/06 07:45:59;;;;;;;37.90;21.83;;;;;;;;;;4347200;33;20195;-82
2021/09/06 07:48:24;;;;;;;36.17;23.83;;;;;;;;;;4347057;33;20485;-84
2021/09/06 07:50:50;;;;;;;37.55;21.65;;;;;;;;;;4347236;33;20210;-83
2021/09/06 07:53:16;;;;;;;39.45;22.70;;;;;;;;;;4347428;33;20179;-83
2021/09/06 07:55:41;;;;;;;35.38;21.75;;;;;;;;;;4347205;33;20136;-82
2021/09/06 07:58:06;;;;;;;39.22;23.90;;;;;;;;;;4347445;33;20217;-83
2021/09/06 08:00:34;;;;;;;36.08;22.80;;;;;;;;;;4347603;33;20139;-82
2021/09/06 08:03:00;;;;;;;37.78;22.42;;;;;;;;;;4347565;33;20151;-84
2021/09/06 08:05:28;;;;;;;33.25;21.70;;;;;;;;;;4347133;33;20213;-83
2021/09/06 08:07:54;;;;;;;37.13;21.60;;;;;;;;;;4346752;33;20143;-84
2021/09/06 08:10:19;;;;;;;34.10;21.90;;;;;;;;;;4347798;33;20205;-84
2021/09/06 08:12:47;;;;;;;34.13;22.37;;;;;;;;;;4346515;33;20136;-83
2021/09/06 08:15:12;;;;;;;38.35;22.55;;;;;;;;;;4348084;33;20136;-84
2021/09/06 08:17:38;;;;;;;39.33;23.17;;;;;;;;;;4346848;33;20147;-83
2021/09/06 08:20:04;;;;;;;36.50;22.27;;;;;;;;;;4346687;33;20158;-82
2021/09/06 08:22:30;;;;;;;34.55;21.50;;;;;;;;;;4346945;33;20139;-84
2021/09/06 08:24:57;;;;;;;34.25;22.02;;;;;;;;;;4333300;33;20160;-84
2021/09/06 08:27:23;;;;;;;38.22;23.67;;;;;;;;;;4347286;33;20136;-84
2021/09/06 08:29:53;;;;;;;35.63;21.85;;;;;;;;;;4333224;33;20287;-83
2021/09/06 08:32:22;;;;;;;33.88;22.17;;;;;;;;;;4347157;33;20177;-84
2021/09/06 08:34:54;;;;;;;36.70;22.48;;;;;;;;;;4346926;33;20136;-85
2021/09/06 08:37:20;;;;;;;37.00;21.12;;;;;;;;;;4347119;33;20136;-83
2021/09/06 08:39:46;;;;;;;36.65;22.10;;;;;;;;;;4347056;33;20177;-84
2021/09/06 08:42:11;;;;;;;32.40;21.10;;;;;;;;;;4347012;33;20139;-85
2021/09/06 08:44:37;;;;;;;34.58;21.80;;;;;;;;;;4346974;33;20175;-84
2021/09/06 08:47:02;;;;;;;31.37;21.02;;;;;;;;;;4347116;33;20234;-84
2021/09/06 08:49:28;;;;;;;33.28;20.77;;;;;;;;;;4352642;33;20165;-84
2021/09/06 08:51:56;;;;;;;34.60;21.30;;;;;;;;;;4350905;33;20533;-83
2021/09/06 08:54:24;;;;;;;29.50;20.02;;;;;;;;;;4355722;33;20205;-85
2021/09/06 08:56:49;;;;;;;28.75;19.60;;;;;;;;;;4352491;33;20158;-84
2021/09/06 08:59:20;;;;;;;26.85;17.33;;;;;;;;;;4351652;33;20154;-84
2021/09/06 09:01:48;;;;;;;26.77;16.83;;;;;;;;;;4352562;33;20202;-83
2021/09/06 09:04:21;;;;;;;26.02;17.15;;;;;;;;;;4358895;33;20194;-85
2021/09/06 09:06:48;;;;;;;23.92;15.90;;;;;;;;;;4344258;33;20194;-85
2021/09/06 09:09:21;;;;;;;22.42;14.32;;;;;;;;;;4359695;33;20123;-85
2021/09/06 09:12:02;;;;;;;22.67;14.93;;;;;;;;;;4344802;33;20162;-85
2021/09/06 09:14:28;;;;;;;24.15;16.65;;;;;;;;;;4350242;33;20131;-83
2021/09/06 09:16:56;;;;;;;24.85;13.48;;;;;;;;;;4348042;33;20190;-83
2021/09/06 09:19:33;;;;;;;22.42;14.75;;;;;;;;;;4347229;33;20485;-84
2021/09/06 09:22:06;;;;;;;23.45;15.90;;;;;;;;;;4347359;33;20530;-83
2021/09/06 09:24:31;;;;;;;28.73;16.17;;;;;;;;;;4347661;33;20167;-83
2021/09/06 09:27:01;;;;;;;25.52;15.68;;;;;;;;;;4346877;33;20234;-83
2021/09/06 09:29:27;;;;;;;22.77;15.10;;;;;;;;;;4333054;33;20198;-85
2021/09/06 09:31:56;;;;;;;22.23;15.40;;;;;;;;;;4346293;33;20226;-83
2021/09/06 09:34:28;;;;;;;21.15;13.90;;;;;;;;;;4346684;33;20136;-84
2021/09/06 09:36:56;;;;;;;22.25;14.50;;;;;;;;;;4346894;33;20577;-83
2021/09/06 09:39:22;;;;;;;25.35;15.50;;;;;;;;;;4346284;33;20193;-85
2021/09/06 09:41:52;;;;;;;22.05;15.38;;;;;;;;;;4346578;33;20477;-83
2021/09/06 09:44:21;;;;;;;21.80;15.32;;;;;;;;;;4346221;33;20172;-83
2021/09/06 09:46:57;;;;;;;26.75;16.05;;;;;;;;;;4346121;33;20159;-84
2021/09/06 09:49:23;;;;;;;24.55;14.87;;;;;;;;;;4333067;33;20512;-82
2021/09/06 09:51:48;;;;;;;21.42;14.98;;;;;;;;;;4345906;33;20190;-84
2021/09/06 09:54:18;;;;;;;24.05;16.37;;;;;;;;;;4345967;33;20538;-82
2021/09/06 09:56:47;;;;;;;27.05;16.85;;;;;;;;;;4346229;33;20139;-85
2021/09/06 09:59:13;;;;;;;25.90;17.30;;;;;;;;;;4346046;33;20143;-83
2021/09/06 10:02:07;;;;;;;21.87;15.85;;;;;;;;;;4345851;33;20135;-84
2021/09/06 10:04:39;;;;;;;20.05;14.38;;;;;;;;;;4325855;33;20159;-82
2021/09/06 10:07:04;;;;;;;20.17;13.50;;;;;;;;;;4345964;33;20151;-84
2021/09/06 10:09:41;;;;;;;23.60;17.02;;;;;;;;;;4345579;33;20154;-85
2021/09/06 10:12:07;;;;;;;22.52;15.38;;;;;;;;;;4346722;33;20163;-84
2021/09/06 10:14:32;;;;;;;19.90;13.48;;;;;;;;;;4346004;33;20166;-84
2021/09/06 10:17:02;;;;;;;21.05;14.13;;;;;;;;;;4346008;33;20285;-84
2021/09/06 10:19:38;;;;;;;20.62;15.50;;;;;;;;;;4345493;33;20266;-84
2021/09/06 10:22:03;;;;;;;21.48;14.43;;;;;;;;;;4345864;33;20254;-84
2021/09/06 10:24:28;;;;;;;23.95;16.55;;;;;;;;;;4345663;33;20139;-83
2021/09/06 10:27:01;;;;;;;32.43;17.40;;;;;;;;;;4345514;33;20477;-83
2021/09/06 10:29:27;;;;;;;23.17;15.95;;;;;;;;;;4345752;33;20268;-82
2021/09/06 10:32:02;;;;;;;27.60;16.23;;;;;;;;;;4345434;33;20162;-83
2021/09/06 10:34:29;;;;;;;23.60;16.90;;;;;;;;;;4345487;33;20569;-83
2021/09/06 10:37:04;;;;;;;21.77;15.52;;;;;;;;;;4348115;33;20194;-84
2021/09/06 10:39:31;;;;;;;22.00;15.57;;;;;;;;;;4335144;33;20217;-83
2021/09/06 10:42:04;;;;;;;23.12;15.20;;;;;;;;;;4348189;33;20147;-84
2021/09/06 10:44:49;;;;;;;19.35;13.40;;;;;;;;;;4348660;33;20189;-83
2021/09/06 10:47:18;;;;;;;23.67;13.05;;;;;;;;;;4348313;33;20164;-84
2021/09/06 10:49:46;;;;;;;25.62;12.77;;;;;;;;;;4348267;33;20139;-83
2021/09/06 10:52:15;;;;;;;27.05;13.80;;;;;;;;;;4348160;33;20165;-84
2021/09/06 10:54:40;;;;;;;16.30;11.43;;;;;;;;;;4335267;33;20152;-83
2021/09/06 10:57:08;;;;;;;17.10;11.57;;;;;;;;;;4348282;33;20161;-84
2021/09/06 10:59:33;;;;;;;19.05;13.13;;;;;;;;;;4347992;33;20198;-83
2021/09/06 11:01:59;;;;;;;18.90;12.80;;;;;;;;;;4347618;33;20143;-83
2021/09/06 11:04:27;;;;;;;19.30;11.27;;;;;;;;;;4334241;33;20159;-85
2021/09/06 11:07:01;;;;;;;21.37;12.65;;;;;;;;;;4347880;33;20143;-83
2021/09/06 11:09:27;;;;;;;21.83;12.27;;;;;;;;;;4347496;33;20468;-84
2021/09/06 11:11:58;;;;;;;19.83;12.35;;;;;;;;;;4347950;33;20158;-82
2021/09/06 11:14:33;;;;;;;17.90;11.48;;;;;;;;;;4348639;33;20198;-83
2021/09/06 11:16:58;;;;;;;16.08;12.37;;;;;;;;;;4334002;33;20198;-84
2021/09/06 11:19:27;;;;;;;26.08;13.23;;;;;;;;;;4333985;33;20570;-84
2021/09/06 11:21:55;;;;;;;24.40;12.10;;;;;;;;;;4348025;33;20473;-83
2021/09/06 11:24:21;;;;;;;15.48;10.27;;;;;;;;;;4347834;33;20162;-84
2021/09/06 11:26:47;;;;;;;15.20;10.45;;;;;;;;;;4333907;33;20253;-83
2021/09/06 11:29:12;;;;;;;15.27;11.20;;;;;;;;;;4347902;33;20451;-84
2021/09/06 11:31:43;;;;;;;15.93;12.27;;;;;;;;;;4347801;33;20298;-84
2021/09/06 11:34:09;;;;;;;18.62;12.40;;;;;;;;;;4347897;33;20127;-83
2021/09/06 11:36:35;;;;;;;16.62;11.85;;;;;;;;;;4347435;33;20170;-85
2021/09/06 11:39:01;;;;;;;15.73;10.75;;;;;;;;;;4335190;33;20160;-84
2021/09/06 11:41:29;;;;;;;17.80;11.05;;;;;;;;;;4333978;33;20209;-84
2021/09/06 11:43:54;;;;;;;17.08;11.27;;;;;;;;;;4347333;33;20155;-83
2021/09/06 11:46:20;;;;;;;14.65;10.40;;;;;;;;;;4345432;33;20163;-84
2021/09/06 11:48:49;;;;;;;15.80;10.50;;;;;;;;;;4347446;33;20147;-85
2021/09/06 11:51:15;;;;;;;17.25;12.50;;;;;;;;;;4347146;33;20139;-84
2021/09/06 11:53:41;;;;;;;20.45;12.43;;;;;;;;;;4333865;33;20552;-83
2021/09/06 11:56:13;;;;;;;15.52;10.50;;;;;;;;;;4347081;33;20160;-84
2021/09/06 11:58:44;;;;;;;18.67;11.77;;;;;;;;;;4347695;33;20221;-83
2021/09/06 12:01:13;;;;;;;16.77;11.32;;;;;;;;;;4346603;33;20455;-83
2021/09/06 12:03:39;;;;;;;16.90;10.73;;;;;;;;;;4347283;33;20136;-84
2021/09/06 12:06:07;;;;;;;18.23;11.23;;;;;;;;;;4347394;33;20167;-84
2021/09/06 12:08:32;;;;;;;16.42;11.57;;;;;;;;;;4334214;33;20474;-83
2021/09/06 12:11:05;;;;;;;16.80;11.63;;;;;;;;;;4333404;33;20190;-83
2021/09/06 12:13:34;;;;;;;16.90;12.45;;;;;;;;;;4347482;33;20187;-83
2021/09/06 12:16:00;;;;;;;16.02;11.27;;;;;;;;;;4346608;33;20139;-84
2021/09/06 12:18:40;;;;;;;15.02;11.02;;;;;;;;;;4333714;33;20213;-81
2021/09/06 12:21:07;;;;;;;13.05;9.80;;;;;;;;;;4333257;33;20171;-83
2021/09/06 12:23:33;;;;;;;19.02;10.38;;;;;;;;;;4346725;33;20166;-83
2021/09/06 12:25:59;;;;;;;21.55;10.43;;;;;;;;;;4346752;33;20139;-84
2021/09/06 12:28:24;;;;;;;13.05;9.65;;;;;;;;;;4346765;33;20178;-84
2021/09/06 12:30:57;;;;;;;14.80;10.57;;;;;;;;;;4332935;33;20176;-84
2021/09/06 12:33:23;;;;;;;13.50;10.38;;;;;;;;;;4347399;33;20186;-85
2021/09/06 12:35:50;;;;;;;12.73;10.45;;;;;;;;;;4346516;33;20159;-83
2021/09/06 12:38:16;;;;;;;17.45;11.40;;;;;;;;;;4347155;33;20215;-83
2021/09/06 12:40:41;;;;;;;11.65;8.98;;;;;;;;;;4333444;33;20206;-83
2021/09/06 12:43:06;;;;;;;13.60;10.07;;;;;;;;;;4346908;33;20217;-83
2021/09/06 12:45:32;;;;;;;13.95;10.25;;;;;;;;;;4347064;33;20132;-84
2021/09/06 12:47:57;;;;;;;13.02;9.88;;;;;;;;;;4346741;33;20221;-83
2021/09/06 12:50:23;;;;;;;11.85;9.68;;;;;;;;;;4346840;33;20475;-83
2021/09/06 12:52:48;;;;;;;23.85;9.93;;;;;;;;;;4346624;33;20144;-83
2021/09/06 12:55:17;;;;;;;17.23;10.30;;;;;;;;;;4346543;33;20542;-83
2021/09/06 12:57:42;;;;;;;15.05;10.45;;;;;;;;;;4345752;33;20186;-83
2021/09/06 13:00:08;;;;;;;15.27;11.27;;;;;;;;;;4346399;33;20128;-82
2021/09/06 13:02:33;;;;;;;15.30;11.07;;;;;;;;;;4346719;33;20165;-84
2021/09/06 13:04:59;;;;;;;17.77;11.90;;;;;;;;;;4346171;33;20144;-81
2021/09/06 13:07:24;;;;;;;22.20;11.80;;;;;;;;;;4346759;33;20522;-83
2021/09/06 13:09:49;;;;;;;18.23;11.38;;;;;;;;;;4346439;33;20159;-83
2021/09/06 13:12:14;;;;;;;15.38;11.50;;;;;;;;;;4332859;33;20242;-82
2021/09/06 13:14:40;;;;;;;11.95;9.40;;;;;;;;;;4346369;33;20158;-81
2021/09/06 13:17:05;;;;;;;12.43;9.30;;;;;;;;;;4345941;33;20132;-82
2021/09/06 13:19:30;;;;;;;12.77;9.27;;;;;;;;;;4332748;33;20565;-83
2021/09/06 13:21:55;;;;;;;14.27;9.00;;;;;;;;;;4345972;33;20186;-83
2021/09/06 13:24:21;;;;;;;11.93;8.55;;;;;;;;;;4332844;33;20155;-83
2021/09/06 13:26:46;;;;;;;12.25;8.65;;;;;;;;;;4345778;33;20190;-83
2021/09/06 13:29:11;;;;;;;12.55;9.32;;;;;;;;;;4332138;33;20187;-83
2021/09/06 13:31:37;;;;;;;11.25;8.05;;;;;;;;;;4345827;33;20193;-83
2021/09/06 13:34:02;;;;;;;10.68;7.95;;;;;;;;;;4332448;33;20214;-83
2021/09/06 13:36:28;;;;;;;10.35;7.62;;;;;;;;;;4345799;33;20205;-83
2021/09/06 13:38:57;;;;;;;10.95;7.68;;;;;;;;;;4332313;33;20159;-83
2021/09/06 13:41:22;;;;;;;9.77;7.68;;;;;;;;;;4345445;33;20550;-83
2021/09/06 13:43:47;;;;;;;10.13;7.40;;;;;;;;;;4345562;33;20158;-84
2021/09/06 13:46:13;;;;;;;12.43;7.97;;;;;;;;;;4345717;33;20215;-84
2021/09/06 13:48:38;;;;;;;10.57;7.43;;;;;;;;;;4332262;33;20260;-83
2021/09/06 13:51:03;;;;;;;11.23;7.15;;;;;;;;;;4348041;33;20159;-84
2021/09/06 13:53:29;;;;;;;11.40;7.53;;;;;;;;;;4351057;33;20136;-84
2021/09/06 13:55:54;;;;;;;11.45;8.02;;;;;;;;;;4351402;33;20157;-84
2021/09/06 13:58:32;;;;;;;;;;;;;;;;;;;;;
2021/09/06 14:00:58;;;;;;;11.90;9.60;;;;;;;;;;4312055;33;20144;-84
2021/09/06 14:03:23;;;;;;;13.45;9.38;;;;;;;;;;4332228;33;20569;-83
2021/09/06 14:05:49;;;;;;;14.77;10.35;;;;;;;;;;4345548;33;20189;-83
2021/09/06 14:08:14;;;;;;;15.02;10.52;;;;;;;;;;4345554;33;20162;-82
2021/09/06 14:10:39;;;;;;;13.15;10.10;;;;;;;;;;4345118;33;20214;-83
2021/09/06 14:13:05;;;;;;;14.95;10.30;;;;;;;;;;4332445;33;20159;-85
2021/09/06 14:15:30;;;;;;;13.23;10.20;;;;;;;;;;4345657;33;20131;-82
2021/09/06 14:17:58;;;;;;;14.70;10.38;;;;;;;;;;4345634;33;20522;-84
2021/09/06 14:20:24;;;;;;;15.18;10.75;;;;;;;;;;4345214;33;20140;-85
2021/09/06 14:22:49;;;;;;;18.40;11.88;;;;;;;;;;4345683;33;20135;-84
2021/09/06 14:25:15;;;;;;;16.33;12.10;;;;;;;;;;4345297;33;20193;-83
2021/09/06 14:27:40;;;;;;;17.48;13.57;;;;;;;;;;4345871;33;20220;-84
2021/09/06 14:30:06;;;;;;;17.58;12.68;;;;;;;;;;4332005;33;20528;-81
2021/09/06 14:32:36;;;;;;;16.95;13.15;;;;;;;;;;4319757;33;20178;-83
2021/09/06 14:35:13;;;;;;;16.62;12.20;;;;;;;;;;4346509;33;20186;-84
2021/09/06 14:37:38;;;;;;;21.75;13.65;;;;;;;;;;4346485;33;20194;-81
2021/09/06 14:40:34;;;;;;;15.18;12.10;;;;;;;;;;4347849;33;20170;-84
2021/09/06 14:42:59;;;;;;;16.55;11.65;;;;;;;;;;4346601;33;20171;-85
2021/09/06 14:45:25;;;;;;;17.02;12.30;;;;;;;;;;4332711;33;20179;-84
2021/09/06 14:47:50;;;;;;;18.02;11.90;;;;;;;;;;4345848;33;20168;-82
2021/09/06 14:50:15;;;;;;;16.42;12.68;;;;;;;;;;4345143;33;20600;-84
2021/09/06 14:52:40;;;;;;;17.93;12.43;;;;;;;;;;4345036;33;20485;-84
2021/09/06 14:55:09;;;;;;;19.13;12.27;;;;;;;;;;4331976;33;20761;-83
2021/09/06 14:57:34;;;;;;;18.98;13.05;;;;;;;;;;4331493;33;20253;-78
2021/09/06 14:59:59;;;;;;;17.23;13.77;;;;;;;;;;4345866;33;20178;-83
2021/09/06 15:02:24;;;;;;;17.10;13.55;;;;;;;;;;4345345;33;20136;-83
2021/09/06 15:04:50;;;;;;;17.05;12.85;;;;;;;;;;4332021;33;20164;-84